Terminal Aerodrome Forecast
Issued by NWS Wichita, KS

Home | Current Version | Previous Version | Text Only | Print | Product List | Glossary Off
Versions: 1 2 3 4 5 6 7 8 9 10 11 12 13 14 15 16 17

000
FTUS43 KICT 170400 AAE
TAFICT
TAF AMD
KICT 170416Z 1704/1724 01014G20KT P6SM BKN120
     FM170500 01012KT P6SM OVC110
     FM170900 04011KT P6SM VCSH OVC090
      TEMPO 1714/1718 6SM -RA OVC040=

USA.gov is the U.S. government's official web portal to all federal, state and local government web resources and services.